createdAt,value
2022-08-04T00:03:07.308Z,51.99
2022-08-04T00:08:21.959Z,55.38
2022-08-04T00:13:26.475Z,53.64
2022-08-04T00:18:49.296Z,51.20
2022-08-04T00:24:10.610Z,51.95
2022-08-04T00:29:15.527Z,52.65
2022-08-04T00:34:19.337Z,52.84
2022-08-04T00:39:23.008Z,52.11
2022-08-04T00:44:37.977Z,52.20
2022-08-04T00:50:12.295Z,59.30
2022-08-04T00:55:17.931Z,52.42
2022-08-04T01:00:20.616Z,53.93
2022-08-04T01:05:47.339Z,58.21
2022-08-04T01:11:23.695Z,57.10
2022-08-04T01:16:27.798Z,53.88
2022-08-04T01:21:30.369Z,58.36
2022-08-04T01:26:58.593Z,50.09
2022-08-04T01:32:25.795Z,58.91
2022-08-04T01:37:40.409Z,56.14
2022-08-04T01:42:46.219Z,59.22
2022-08-04T01:47:53.595Z,59.37
2022-08-04T01:52:56.641Z,57.56
2022-08-04T01:58:01.347Z,54.26
2022-08-04T02:03:03.853Z,55.32
2022-08-04T02:08:06.258Z,57.26
2022-08-04T02:13:20.682Z,60.60
2022-08-04T02:18:51.896Z,60.76
2022-08-04T02:24:06.383Z,54.12
2022-08-04T02:29:28.185Z,57.51
2022-08-04T02:35:05.784Z,60.03
2022-08-04T02:40:12.136Z,61.99
2022-08-04T02:45:18.697Z,54.48
2022-08-04T02:50:29.173Z,57.89
2022-08-04T02:55:33.893Z,61.34
2022-08-04T03:00:37.534Z,61.53
2022-08-04T03:06:01.735Z,58.01
2022-08-04T03:11:19.571Z,60.41
2022-08-04T03:16:38.523Z,59.75
2022-08-04T03:22:12.049Z,60.93
2022-08-04T03:27:52.305Z,61.28
2022-08-04T03:33:19.591Z,61.81
2022-08-04T03:38:40.065Z,62.20
2022-08-04T03:44:19.521Z,58.85
2022-08-04T03:50:11.268Z,61.37
2022-08-04T03:55:13.642Z,55.40
2022-08-04T04:00:39.453Z,62.31
2022-08-04T04:06:16.923Z,56.84
2022-08-04T04:11:58.402Z,57.96
2022-08-04T04:17:11.592Z,59.78
2022-08-04T04:22:38.860Z,61.98
2022-08-04T04:28:46.552Z,59.90
2022-08-04T04:33:49.664Z,55.32
2022-08-04T04:39:14.009Z,60.01
2022-08-04T04:44:37.651Z,61.73
2022-08-04T04:50:09.815Z,59.92
2022-08-04T04:55:33.860Z,60.42
2022-08-04T05:01:03.432Z,61.75
2022-08-04T05:06:15.302Z,58.33
2022-08-04T05:11:38.543Z,56.31
2022-08-04T05:17:04.365Z,55.49
2022-08-04T05:22:18.614Z,58.38
2022-08-04T05:27:30.563Z,59.76
2022-08-04T05:32:59.940Z,55.53
2022-08-04T05:38:04.652Z,54.37
2022-08-04T05:43:07.393Z,56.88
2022-08-04T05:48:11.132Z,54.56
2022-08-04T05:53:15.744Z,54.19
2022-08-04T05:58:19.925Z,53.90
2022-08-04T06:03:24.042Z,56.79
2022-08-04T06:08:26.716Z,51.84
2022-08-04T06:13:48.996Z,57.63
2022-08-04T06:19:59.256Z,55.90
2022-08-04T06:24:23.957Z,49.56
2022-08-04T06:29:34.262Z,50.69
2022-08-04T06:34:37.429Z,49.19
2022-08-04T06:39:40.021Z,49.77
2022-08-04T06:44:49.428Z,48.12
2022-08-04T06:51:24.793Z,47.09
2022-08-04T06:55:17.125Z,46.57
2022-08-04T07:00:20.104Z,45.09
2022-08-04T07:05:23.362Z,45.20
2022-08-04T07:10:29.695Z,43.96
2022-08-04T07:15:33.051Z,44.24
2022-08-04T07:20:36.981Z,43.26
2022-08-04T07:26:00.536Z,43.30
2022-08-04T07:31:03.366Z,43.22
2022-08-04T07:36:11.570Z,43.15
2022-08-04T07:41:35.927Z,45.32
2022-08-04T07:46:38.911Z,44.77
2022-08-04T07:51:41.505Z,41.56
2022-08-04T07:56:44.920Z,39.74
2022-08-04T08:01:48.310Z,39.55
2022-08-04T08:06:52.497Z,42.07
2022-08-04T08:12:37.481Z,41.13
2022-08-04T08:17:18.030Z,38.33
2022-08-04T08:22:20.609Z,36.32
2022-08-04T08:27:24.028Z,35.34
2022-08-04T08:32:27.627Z,35.24
2022-08-04T08:37:47.708Z,34.14
2022-08-04T08:44:06.441Z,34.86
2022-08-04T08:48:42.083Z,34.07
2022-08-04T08:53:48.646Z,34.50
2022-08-04T08:59:05.950Z,33.35
2022-08-04T09:05:05.357Z,33.31
2022-08-04T09:10:22.767Z,33.00
2022-08-04T09:16:00.650Z,33.96
2022-08-04T09:21:33.916Z,31.92
2022-08-04T09:26:46.838Z,31.78
2022-08-04T09:32:22.556Z,30.80
2022-08-04T09:37:48.579Z,30.37
2022-08-04T09:43:03.022Z,28.94
2022-08-04T09:48:40.383Z,28.91
2022-08-04T09:54:04.176Z,27.70
2022-08-04T09:59:27.245Z,26.96
2022-08-04T10:04:33.635Z,27.30
2022-08-04T10:09:48.813Z,28.61
2022-08-04T10:15:18.778Z,26.26
2022-08-04T10:20:44.339Z,25.73
2022-08-04T10:26:05.708Z,27.59
2022-08-04T10:31:15.917Z,26.96
2022-08-04T10:36:23.974Z,26.77
2022-08-04T10:41:46.621Z,28.72
2022-08-04T10:46:57.524Z,25.21
2022-08-04T10:52:08.634Z,26.60
2022-08-04T10:57:37.863Z,24.34
2022-08-04T11:03:23.530Z,23.54
2022-08-04T11:08:34.648Z,22.85
2022-08-04T11:13:46.955Z,22.92
2022-08-04T11:19:04.035Z,24.92
2022-08-04T11:24:22.819Z,25.38
2022-08-04T11:29:49.994Z,23.93
2022-08-04T11:35:02.160Z,22.48
2022-08-04T11:40:25.005Z,27.78
2022-08-04T11:45:38.038Z,26.64
2022-08-04T11:50:53.074Z,27.06
2022-08-04T11:56:07.526Z,29.15
2022-08-04T12:01:26.856Z,32.87
2022-08-04T12:07:00.407Z,34.12
2022-08-04T12:12:32.616Z,30.56
2022-08-04T12:17:54.471Z,29.74
2022-08-04T12:22:57.516Z,29.70
2022-08-04T12:28:15.776Z,27.78
2022-08-04T12:34:05.810Z,27.83
2022-08-04T12:39:19.750Z,26.97
2022-08-04T12:44:37.000Z,27.66
2022-08-04T12:49:56.248Z,26.69
2022-08-04T12:55:06.188Z,26.18
2022-08-04T13:00:10.442Z,24.75
2022-08-04T13:05:17.209Z,22.45
2022-08-04T13:10:30.195Z,22.06
2022-08-04T13:15:47.270Z,24.78
2022-08-04T13:21:19.846Z,24.75
2022-08-04T13:26:44.384Z,26.43
2022-08-04T13:31:53.022Z,28.20
2022-08-04T13:36:56.865Z,30.54
2022-08-04T13:42:08.023Z,29.55
2022-08-04T13:47:19.457Z,31.09
2022-08-04T13:52:26.508Z,30.60
2022-08-04T13:57:35.910Z,27.76
2022-08-04T14:02:49.983Z,24.97
2022-08-04T14:08:01.215Z,28.22
2022-08-04T14:13:05.945Z,27.84
2022-08-04T14:18:21.252Z,26.61
2022-08-04T14:23:23.844Z,25.07
2022-08-04T14:29:27.690Z,27.49
2022-08-04T14:33:56.813Z,27.90
2022-08-04T14:39:07.825Z,24.94
2022-08-04T14:44:10.502Z,25.14
2022-08-04T14:49:13.905Z,28.54
2022-08-04T14:54:18.835Z,33.12
2022-08-04T14:59:22.306Z,33.05
2022-08-04T15:04:26.047Z,28.72
2022-08-04T15:09:28.923Z,32.01
2022-08-04T15:14:37.200Z,32.79
2022-08-04T15:19:40.923Z,32.44
2022-08-04T15:24:58.553Z,27.67
2022-08-04T15:30:04.450Z,28.56
2022-08-04T15:35:12.693Z,28.70
2022-08-04T15:40:37.393Z,32.10
2022-08-04T15:46:41.173Z,32.84
2022-08-04T15:51:31.983Z,34.25
2022-08-04T15:56:48.473Z,33.27
2022-08-04T16:02:33.254Z,37.24
2022-08-04T16:07:56.855Z,32.23
2022-08-04T16:13:05.065Z,37.55
2022-08-04T16:18:13.751Z,35.98
2022-08-04T16:23:55.930Z,35.99
2022-08-04T16:28:59.651Z,34.22
2022-08-04T16:34:50.282Z,34.17
2022-08-04T16:39:25.094Z,35.82
2022-08-04T16:44:53.052Z,37.34
2022-08-04T16:50:03.063Z,38.21
2022-08-04T16:55:06.104Z,35.47
2022-08-04T17:00:09.699Z,33.09
2022-08-04T17:05:38.956Z,32.37
2022-08-04T17:10:45.996Z,32.71
2022-08-04T17:15:53.337Z,32.38
2022-08-04T17:21:02.003Z,36.39
2022-08-04T17:26:06.870Z,38.00
2022-08-04T17:31:14.821Z,37.84
2022-08-04T17:36:18.419Z,35.10
2022-08-04T17:41:30.587Z,34.33
2022-08-04T17:46:48.202Z,35.28
2022-08-04T17:52:06.441Z,33.34
2022-08-04T17:57:22.102Z,35.33
2022-08-04T18:02:32.832Z,35.56
2022-08-04T18:08:38.249Z,36.78
2022-08-04T18:13:13.837Z,36.20
2022-08-04T18:18:23.629Z,36.51
2022-08-04T18:23:31.499Z,37.42
2022-08-04T18:28:36.140Z,37.91
2022-08-04T18:33:41.361Z,38.89
2022-08-04T18:38:55.647Z,39.19
2022-08-04T18:44:01.857Z,41.32
2022-08-04T18:49:06.062Z,40.60
2022-08-04T18:54:08.764Z,40.15
2022-08-04T18:59:11.304Z,41.74
2022-08-04T19:04:33.058Z,43.62
2022-08-04T19:09:51.399Z,44.95
2022-08-04T19:15:08.900Z,44.74
2022-08-04T19:20:24.374Z,46.69
2022-08-04T19:26:01.681Z,44.99
2022-08-04T19:30:51.342Z,45.08
2022-08-04T19:35:54.599Z,48.90
2022-08-04T19:40:58.404Z,42.17
2022-08-04T19:46:01.146Z,43.38
2022-08-04T19:51:03.732Z,43.66
2022-08-04T19:56:07.227Z,43.32
2022-08-04T20:01:31.262Z,46.38
2022-08-04T20:06:33.070Z,44.99
2022-08-04T20:11:35.529Z,43.95
2022-08-04T20:16:38.046Z,45.79
2022-08-04T20:21:55.059Z,51.29
2022-08-04T20:26:58.916Z,47.98
2022-08-04T20:32:05.405Z,46.43
2022-08-04T20:37:10.091Z,45.80
2022-08-04T20:42:13.117Z,50.77
2022-08-04T20:47:16.300Z,47.57
2022-08-04T20:52:20.823Z,47.56
2022-08-04T20:57:48.577Z,46.22
2022-08-04T21:02:46.144Z,46.85
2022-08-04T21:07:49.073Z,50.76
2022-08-04T21:12:51.620Z,48.47
2022-08-04T21:17:57.995Z,45.73
2022-08-04T21:23:07.391Z,44.89
2022-08-04T21:28:10.263Z,45.82
2022-08-04T21:33:13.089Z,47.77
2022-08-04T21:38:18.274Z,47.94
2022-08-04T21:43:23.704Z,46.37
2022-08-04T21:48:30.001Z,46.60
2022-08-04T21:53:32.515Z,47.28
2022-08-04T21:58:36.889Z,52.14
2022-08-04T22:03:52.417Z,51.52
2022-08-04T22:08:57.271Z,47.53
2022-08-04T22:14:11.215Z,48.53
2022-08-04T22:19:14.101Z,48.57
2022-08-04T22:24:25.764Z,48.08
2022-08-04T22:29:39.137Z,48.50
2022-08-04T22:34:45.605Z,47.98
2022-08-04T22:39:56.869Z,48.93
2022-08-04T22:44:59.771Z,50.23
2022-08-04T22:50:26.781Z,52.97
2022-08-04T22:55:26.825Z,50.47
2022-08-04T23:00:52.950Z,50.39
2022-08-04T23:05:56.666Z,51.42
2022-08-04T23:10:59.351Z,51.97
2022-08-04T23:16:09.964Z,58.63
2022-08-04T23:21:13.993Z,60.00
2022-08-04T23:26:16.939Z,55.05
2022-08-04T23:31:19.397Z,52.70
2022-08-04T23:36:29.429Z,51.31
2022-08-04T23:41:53.739Z,52.23
2022-08-04T23:47:01.891Z,50.53
2022-08-04T23:52:05.563Z,52.15
2022-08-04T23:57:16.135Z,55.23
